Terminal Aerodrome Forecast
Issued by NWS

Current Version | Previous Version | Text Only | Print | Product List | Glossary On
Versions: 1 2 3 4 5 6 7 8 9 10 11 12 13 14 15
000
FTUS42 KTAE 300701 AAB
TAFABY
TAF AMD
KABY 300701Z 3007/3106 16004KT 2SM RA BKN030
     FM301000 10003KT 5SM BR BKN012
     FM301400 15004KT P6SM BKN025
     FM301700 16005KT P6SM VCTS BKN040CB
     FM310000 12006KT P6SM BKN040=

USA.gov is the U.S. government's official web portal to all federal, state and local government web resources and services.